Time,TemperatureF,DewpointF,PressureIn,WindDirection,WindDirectionDegrees,WindSpeedMPH,WindSpeedGustMPH,Humidity,HourlyPrecipIn,Conditions,Clouds,dailyrainin,SoftwareType,DateUTC
2013-06-26 00:02:00,78.4,73.2,30.02,SSW,213,0.0,6.0,84,0.00,,,0.00,meteohub,2013-06-26 05:02:00,
2013-06-26 00:07:00,78.3,73.0,30.02,SSW,213,0.0,3.0,84,0.00,,,0.00,meteohub,2013-06-26 05:07:00,
2013-06-26 00:12:00,78.3,73.0,30.02,SSW,213,0.0,2.0,84,0.00,,,0.00,meteohub,2013-06-26 05:12:00,
2013-06-26 00:17:00,78.1,72.9,30.02,SSW,213,0.0,1.0,84,0.00,,,0.00,meteohub,2013-06-26 05:17:00,
2013-06-26 00:22:00,77.9,73.0,30.02,SSW,213,0.0,1.0,85,0.00,,,0.00,meteohub,2013-06-26 05:22:00,
2013-06-26 00:27:00,77.7,72.9,30.02,SSW,213,0.0,1.0,85,0.00,,,0.00,meteohub,2013-06-26 05:27:00,
2013-06-26 00:32:00,77.5,73.0,30.01,SSW,213,0.0,1.0,86,0.00,,,0.00,meteohub,2013-06-26 05:32:00,
2013-06-26 00:37:00,77.4,72.9,30.01,SSW,213,0.0,0.0,86,0.00,,,0.00,meteohub,2013-06-26 05:37:00,
2013-06-26 00:42:00,77.4,72.9,30.01,SSW,213,0.0,1.0,86,0.00,,,0.00,meteohub,2013-06-26 05:42:00,
2013-06-26 01:27:00,75.7,72.3,30.01,SSW,213,0.0,1.0,89,0.00,,,0.00,meteohub,2013-06-26 06:27:00,
2013-06-26 01:32:00,75.9,72.5,30.00,South,184,1.0,2.0,89,0.00,,,0.00,meteohub,2013-06-26 06:32:00,
2013-06-26 01:37:00,76.1,72.3,30.00,South,184,0.0,3.0,88,0.00,,,0.00,meteohub,2013-06-26 06:37:00,
2013-06-26 01:42:00,76.3,72.5,30.00,SSW,210,3.0,3.0,88,0.00,,,0.00,meteohub,2013-06-26 06:42:00,
2013-06-26 01:47:00,76.5,72.7,30.00,SSW,210,2.0,5.0,88,0.00,,,0.00,meteohub,2013-06-26 06:47:00,
2013-06-26 01:52:00,76.6,72.5,30.00,SSW,210,0.0,5.0,87,0.00,,,0.00,meteohub,2013-06-26 06:52:00,
2013-06-26 01:57:00,76.6,72.5,30.00,SSW,210,0.0,4.0,87,0.00,,,0.00,meteohub,2013-06-26 06:57:00,
2013-06-26 02:02:00,76.8,72.7,30.00,South,187,2.0,5.0,87,0.00,,,0.00,meteohub,2013-06-26 07:02:00,
2013-06-26 02:07:00,76.8,72.3,30.00,SSW,203,1.0,5.0,86,0.00,,,0.00,meteohub,2013-06-26 07:07:00,
2013-06-26 02:12:00,76.8,72.3,29.99,SSW,203,1.0,5.0,86,0.00,,,0.00,meteohub,2013-06-26 07:12:00,
2013-06-26 02:17:00,76.8,72.3,29.99,SSW,203,3.0,5.0,86,0.00,,,0.00,meteohub,2013-06-26 07:17:00,
2013-06-26 02:22:00,76.8,72.7,29.99,SSW,202,2.0,3.0,87,0.00,,,0.00,meteohub,2013-06-26 07:22:00,
2013-06-26 02:27:00,76.6,72.5,29.99,SSW,202,1.0,4.0,87,0.00,,,0.00,meteohub,2013-06-26 07:27:00,
2013-06-26 02:32:00,76.6,72.5,29.99,SSW,202,0.0,4.0,87,0.00,,,0.00,meteohub,2013-06-26 07:32:00,
2013-06-26 02:37:00,76.5,72.3,29.99,SSW,202,4.0,4.0,87,0.00,,,0.00,meteohub,2013-06-26 07:37:00,
2013-06-26 02:42:00,76.5,72.3,29.99,SSW,202,3.0,5.0,87,0.00,,,0.00,meteohub,2013-06-26 07:42:00,
2013-06-26 02:47:00,76.5,72.3,29.99,SSW,202,1.0,5.0,87,0.00,,,0.00,meteohub,2013-06-26 07:47:00,
2013-06-26 02:52:00,76.5,72.3,29.99,SW,222,0.0,5.0,87,0.00,,,0.00,meteohub,2013-06-26 07:52:00,
2013-06-26 02:57:00,76.3,72.5,29.99,SW,222,1.0,5.0,88,0.00,,,0.00,meteohub,2013-06-26 07:57:00,
2013-06-26 03:02:00,76.3,72.5,29.99,SW,222,0.0,4.0,88,0.00,,,0.00,meteohub,2013-06-26 08:02:00,
2013-06-26 03:07:00,76.1,72.3,29.99,SW,222,0.0,3.0,88,0.00,,,0.00,meteohub,2013-06-26 08:07:00,
2013-06-26 03:12:00,75.9,72.1,29.99,SW,222,0.0,3.0,88,0.00,,,0.00,meteohub,2013-06-26 08:12:00,
2013-06-26 03:17:00,75.9,72.1,29.99,SW,222,0.0,2.0,88,0.00,,,0.00,meteohub,2013-06-26 08:17:00,
2013-06-26 03:22:00,75.9,72.1,29.99,SW,222,0.0,2.0,88,0.00,,,0.00,meteohub,2013-06-26 08:22:00,
2013-06-26 03:27:00,75.7,72.0,29.99,SW,222,0.0,2.0,88,0.00,,,0.00,meteohub,2013-06-26 08:27:00,
2013-06-26 03:32:00,75.6,72.1,29.99,SW,222,0.0,2.0,89,0.00,,,0.00,meteohub,2013-06-26 08:32:00,
2013-06-26 03:37:00,75.4,72.0,29.99,SW,222,0.0,0.0,89,0.00,,,0.00,meteohub,2013-06-26 08:37:00,
2013-06-26 03:42:00,75.2,71.8,29.99,SW,222,0.0,0.0,89,0.00,,,0.00,meteohub,2013-06-26 08:42:00,
2013-06-26 03:47:00,74.8,71.8,29.99,SW,222,0.0,0.0,90,0.00,,,0.00,meteohub,2013-06-26 08:47:00,
2013-06-26 03:52:00,74.7,71.6,29.99,SW,222,0.0,0.0,90,0.00,,,0.00,meteohub,2013-06-26 08:52:00,
2013-06-26 03:57:00,74.7,71.6,29.99,SW,222,0.0,0.0,90,0.00,,,0.00,meteohub,2013-06-26 08:57:00,
2013-06-26 04:02:00,74.5,71.6,29.99,SW,222,0.0,0.0,91,0.00,,,0.00,meteohub,2013-06-26 09:02:00,
2013-06-26 04:07:00,74.5,71.6,29.99,SW,222,0.0,0.0,91,0.00,,,0.00,meteohub,2013-06-26 09:07:00,
2013-06-26 04:12:00,74.1,71.2,29.99,SW,222,0.0,0.0,91,0.00,,,0.00,meteohub,2013-06-26 09:12:00,
2013-06-26 04:17:00,74.1,71.2,30.00,SW,222,0.0,0.0,91,0.00,,,0.00,meteohub,2013-06-26 09:17:00,
2013-06-26 04:22:00,74.1,71.2,29.99,SW,222,0.0,0.0,91,0.00,,,0.00,meteohub,2013-06-26 09:22:00,
2013-06-26 04:27:00,74.1,71.2,29.99,SW,222,0.0,0.0,91,0.00,,,0.00,meteohub,2013-06-26 09:27:00,
2013-06-26 04:32:00,74.1,71.6,29.99,SW,222,0.0,0.0,92,0.00,,,0.00,meteohub,2013-06-26 09:32:00,
2013-06-26 04:37:00,74.1,71.6,29.99,SW,222,0.0,1.0,92,0.00,,,0.00,meteohub,2013-06-26 09:37:00,
2013-06-26 04:42:00,74.1,71.6,29.99,SW,222,0.0,1.0,92,0.00,,,0.00,meteohub,2013-06-26 09:42:00,
2013-06-26 04:47:00,74.1,71.6,30.00,SW,222,0.0,0.0,92,0.00,,,0.00,meteohub,2013-06-26 09:47:00,
2013-06-26 04:52:00,73.9,71.1,30.00,SW,222,0.0,0.0,91,0.00,,,0.00,meteohub,2013-06-26 09:52:00,
2013-06-26 04:57:00,73.9,71.4,30.00,SW,222,0.0,0.0,92,0.00,,,0.00,meteohub,2013-06-26 09:57:00,
2013-06-26 05:02:00,73.9,71.4,30.00,SW,222,0.0,0.0,92,0.00,,,0.00,meteohub,2013-06-26 10:02:00,
2013-06-26 05:07:00,73.9,71.4,30.00,SW,222,0.0,0.0,92,0.00,,,0.00,meteohub,2013-06-26 10:07:00,
2013-06-26 05:12:00,73.9,71.4,30.00,SW,222,0.0,0.0,92,0.00,,,0.00,meteohub,2013-06-26 10:12:00,
2013-06-26 05:17:00,73.8,71.2,30.00,SW,222,0.0,0.0,92,0.00,,,0.00,meteohub,2013-06-26 10:17:00,
2013-06-26 05:22:00,73.9,71.4,30.00,SW,222,0.0,0.0,92,0.00,,,0.00,meteohub,2013-06-26 10:22:00,
2013-06-26 05:27:00,73.8,71.2,30.01,SW,222,0.0,0.0,92,0.00,,,0.00,meteohub,2013-06-26 10:27:00,
2013-06-26 05:32:00,73.8,71.6,30.01,SW,222,0.0,0.0,93,0.00,,,0.00,meteohub,2013-06-26 10:32:00,
2013-06-26 05:37:00,73.8,71.6,30.01,SW,222,0.0,0.0,93,0.00,,,0.00,meteohub,2013-06-26 10:37:00,
2013-06-26 05:42:00,73.8,71.6,30.01,SW,222,0.0,0.0,93,0.00,,,0.00,meteohub,2013-06-26 10:42:00,
2013-06-26 05:47:00,73.6,71.4,30.01,SW,222,0.0,0.0,93,0.00,,,0.00,meteohub,2013-06-26 10:47:00,
2013-06-26 05:52:00,73.2,70.7,30.01,SW,222,0.0,0.0,92,0.00,,,0.00,meteohub,2013-06-26 10:52:00,
2013-06-26 05:57:00,73.2,71.1,30.01,SW,222,0.0,0.0,93,0.00,,,0.00,meteohub,2013-06-26 10:57:00,
2013-06-26 06:02:00,73.0,70.9,30.01,SW,222,0.0,0.0,93,0.00,,,0.00,meteohub,2013-06-26 11:02:00,
2013-06-26 06:07:00,73.2,71.1,30.01,SW,222,0.0,0.0,93,0.00,,,0.00,meteohub,2013-06-26 11:07:00,
2013-06-26 06:12:00,73.2,71.1,30.01,SW,222,0.0,0.0,93,0.00,,,0.00,meteohub,2013-06-26 11:12:00,
2013-06-26 06:17:00,73.2,71.1,30.01,SW,222,0.0,0.0,93,0.00,,,0.00,meteohub,2013-06-26 11:17:00,
2013-06-26 06:22:00,73.2,71.1,30.01,SW,222,0.0,0.0,93,0.00,,,0.00,meteohub,2013-06-26 11:22:00,
2013-06-26 06:32:00,73.4,71.2,30.01,SW,222,0.0,0.0,93,0.00,,,0.00,meteohub,2013-06-26 11:32:00,
2013-06-26 06:37:00,73.6,71.4,30.02,SW,222,0.0,0.0,93,0.00,,,0.00,meteohub,2013-06-26 11:37:00,
2013-06-26 06:42:00,73.8,72.0,30.02,SW,222,0.0,0.0,94,0.00,,,0.00,meteohub,2013-06-26 11:42:00,
2013-06-26 06:47:00,73.9,72.1,30.02,SW,222,0.0,0.0,94,0.00,,,0.00,meteohub,2013-06-26 11:47:00,
2013-06-26 06:52:00,74.5,72.7,30.02,SW,222,0.0,0.0,94,0.00,,,0.00,meteohub,2013-06-26 11:52:00,
2013-06-26 06:57:00,74.8,72.7,30.02,SW,222,0.0,0.0,93,0.00,,,0.00,meteohub,2013-06-26 11:57:00,
2013-06-26 07:02:00,75.6,73.4,30.02,SW,222,0.0,0.0,93,0.00,,,0.00,meteohub,2013-06-26 12:02:00,
2013-06-26 07:07:00,76.1,73.9,30.02,SW,222,0.0,1.0,93,0.00,,,0.00,meteohub,2013-06-26 12:07:00,
2013-06-26 07:12:00,76.8,74.3,30.03,SW,222,0.0,1.0,92,0.00,,,0.00,meteohub,2013-06-26 12:12:00,
2013-06-26 07:17:00,77.7,74.8,30.03,SW,222,0.0,2.0,91,0.00,,,0.00,meteohub,2013-06-26 12:17:00,
2013-06-26 07:22:00,78.6,75.4,30.03,SW,222,0.0,2.0,90,0.00,,,0.00,meteohub,2013-06-26 12:22:00,
2013-06-26 07:27:00,79.3,75.7,30.03,SW,222,0.0,2.0,89,0.00,,,0.00,meteohub,2013-06-26 12:27:00,
2013-06-26 07:32:00,79.7,75.6,30.03,South,173,3.0,4.0,87,0.00,,,0.00,meteohub,2013-06-26 12:32:00,
2013-06-26 07:37:00,79.9,75.7,30.03,SSE,164,1.0,4.0,87,0.00,,,0.00,meteohub,2013-06-26 12:37:00,
2013-06-26 07:42:00,80.1,75.9,30.03,SSE,164,1.0,4.0,87,0.00,,,0.00,meteohub,2013-06-26 12:42:00,
2013-06-26 07:47:00,80.2,75.7,30.04,SSE,164,0.0,4.0,86,0.00,,,0.00,meteohub,2013-06-26 12:47:00,
2013-06-26 07:52:00,80.2,75.7,30.04,SSE,164,0.0,4.0,86,0.00,,,0.00,meteohub,2013-06-26 12:52:00,
2013-06-26 07:57:00,80.6,75.7,30.04,SSE,164,1.0,4.0,85,0.00,,,0.00,meteohub,2013-06-26 12:57:00,
2013-06-26 08:02:00,81.1,76.3,30.04,SSE,164,1.0,4.0,85,0.00,,,0.00,meteohub,2013-06-26 13:02:00,
2013-06-26 08:07:00,81.9,76.1,30.04,SSE,164,1.0,3.0,83,0.00,,,0.00,meteohub,2013-06-26 13:07:00,
2013-06-26 08:12:00,82.0,76.3,30.04,SSE,164,1.0,2.0,83,0.00,,,0.00,meteohub,2013-06-26 13:12:00,
2013-06-26 08:17:00,82.2,76.1,30.04,SSE,164,2.0,3.0,82,0.00,,,0.00,meteohub,2013-06-26 13:17:00,
2013-06-26 08:22:00,82.6,76.5,30.04,South,181,1.0,3.0,82,0.00,,,0.00,meteohub,2013-06-26 13:22:00,
2013-06-26 08:27:00,82.8,76.6,30.04,South,181,2.0,3.0,82,0.00,,,0.00,meteohub,2013-06-26 13:27:00,
2013-06-26 08:32:00,83.1,76.3,30.04,South,181,1.0,3.0,80,0.00,,,0.00,meteohub,2013-06-26 13:32:00,
2013-06-26 08:37:00,83.5,76.6,30.04,South,181,2.0,4.0,80,0.00,,,0.00,meteohub,2013-06-26 13:37:00,
2013-06-26 08:42:00,83.8,77.0,30.04,South,181,2.0,4.0,80,0.00,,,0.00,meteohub,2013-06-26 13:42:00,
2013-06-26 08:52:00,85.3,77.7,30.04,SW,227,2.0,4.0,78,0.00,,,0.00,meteohub,2013-06-26 13:52:00,
2013-06-26 08:57:00,85.5,77.0,30.04,South,191,2.0,7.0,76,0.00,,,0.00,meteohub,2013-06-26 13:57:00,
2013-06-26 09:02:00,85.6,77.2,30.05,SSE,166,0.0,7.0,76,0.00,,,0.00,meteohub,2013-06-26 14:02:00,
2013-06-26 09:07:00,86.2,77.7,30.05,SSW,196,1.0,7.0,76,0.00,,,0.00,meteohub,2013-06-26 14:07:00,
2013-06-26 09:12:00,86.7,77.9,30.05,WSW,238,1.0,5.0,75,0.00,,,0.00,meteohub,2013-06-26 14:12:00,
2013-06-26 09:17:00,87.1,77.7,30.05,South,183,1.0,5.0,74,0.00,,,0.00,meteohub,2013-06-26 14:17:00,
2013-06-26 09:22:00,87.4,77.4,30.05,SSW,209,0.0,5.0,72,0.00,,,0.00,meteohub,2013-06-26 14:22:00,
2013-06-26 09:27:00,87.3,77.5,30.05,SSW,205,0.0,6.0,73,0.00,,,0.00,meteohub,2013-06-26 14:27:00,
2013-06-26 09:32:00,87.1,77.0,30.05,SSW,205,1.0,6.0,72,0.00,,,0.00,meteohub,2013-06-26 14:32:00,
2013-06-26 09:37:00,87.6,77.9,30.05,SSW,205,2.0,6.0,73,0.00,,,0.00,meteohub,2013-06-26 14:37:00,
2013-06-26 09:42:00,88.0,77.4,30.05,South,186,3.0,5.0,71,0.00,,,0.00,meteohub,2013-06-26 14:42:00,
2013-06-26 09:47:00,88.0,77.9,30.05,SW,230,0.0,6.0,72,0.00,,,0.00,meteohub,2013-06-26 14:47:00,
2013-06-26 09:52:00,88.5,77.5,30.05,WSW,251,1.0,6.0,70,0.00,,,0.00,meteohub,2013-06-26 14:52:00,
2013-06-26 09:57:00,88.9,77.4,30.06,SW,234,5.0,5.0,69,0.00,,,0.00,meteohub,2013-06-26 14:57:00,
2013-06-26 10:02:00,88.7,77.2,30.06,West,261,4.0,6.0,69,0.00,,,0.00,meteohub,2013-06-26 15:02:00,
2013-06-26 10:07:00,88.3,77.4,30.06,SSW,196,0.0,6.0,70,0.00,,,0.00,meteohub,2013-06-26 15:07:00,
2013-06-26 10:12:00,88.7,77.7,30.06,SSW,196,1.0,6.0,70,0.00,,,0.00,meteohub,2013-06-26 15:12:00,
2013-06-26 10:17:00,89.2,78.1,30.05,South,191,1.0,6.0,70,0.00,,,0.00,meteohub,2013-06-26 15:17:00,
2013-06-26 10:22:00,90.0,77.5,30.06,WSW,238,0.0,5.0,67,0.00,,,0.00,meteohub,2013-06-26 15:22:00,
2013-06-26 10:27:00,90.1,77.2,30.05,SSW,196,1.0,8.0,66,0.00,,,0.00,meteohub,2013-06-26 15:27:00,
2013-06-26 10:32:00,90.5,77.5,30.05,South,188,1.0,8.0,66,0.00,,,0.00,meteohub,2013-06-26 15:32:00,
2013-06-26 10:37:00,91.0,76.6,30.05,SW,214,3.0,8.0,63,0.00,,,0.00,meteohub,2013-06-26 15:37:00,
2013-06-26 10:42:00,90.7,76.8,30.05,WSW,258,2.0,6.0,64,0.00,,,0.00,meteohub,2013-06-26 15:42:00,
2013-06-26 10:47:00,91.0,77.2,30.05,SSW,207,1.0,6.0,64,0.00,,,0.00,meteohub,2013-06-26 15:47:00,
2013-06-26 10:52:00,91.0,77.2,30.05,South,191,0.0,7.0,64,0.00,,,0.00,meteohub,2013-06-26 15:52:00,
2013-06-26 10:57:00,91.6,77.2,30.05,South,191,0.0,7.0,63,0.00,,,0.00,meteohub,2013-06-26 15:57:00,
2013-06-26 11:02:00,91.9,76.6,30.05,SSW,209,3.0,7.0,61,0.00,,,0.00,meteohub,2013-06-26 16:02:00,
2013-06-26 11:07:00,91.9,76.6,30.05,West,269,4.0,6.0,61,0.00,,,0.00,meteohub,2013-06-26 16:07:00,
2013-06-26 11:12:00,92.1,76.6,30.05,SSW,194,0.0,6.0,61,0.00,,,0.00,meteohub,2013-06-26 16:12:00,
2013-06-26 11:17:00,92.7,77.7,30.05,South,183,5.0,6.0,62,0.00,,,0.00,meteohub,2013-06-26 16:17:00,
2013-06-26 11:22:00,91.9,74.5,30.05,WSW,237,4.0,7.0,57,0.00,,,0.00,meteohub,2013-06-26 16:22:00,
2013-06-26 11:27:00,90.9,74.1,30.05,West,259,3.0,8.0,58,0.00,,,0.00,meteohub,2013-06-26 16:27:00,
2013-06-26 11:32:00,91.0,73.8,30.05,SSW,206,3.0,8.0,57,0.00,,,0.00,meteohub,2013-06-26 16:32:00,
2013-06-26 11:37:00,91.0,74.1,30.05,WNW,299,1.0,8.0,58,0.00,,,0.00,meteohub,2013-06-26 16:37:00,
2013-06-26 11:42:00,91.6,73.0,30.05,SSW,198,5.0,7.0,55,0.00,,,0.00,meteohub,2013-06-26 16:42:00,
2013-06-26 11:47:00,91.9,72.9,30.05,SW,217,2.0,7.0,54,0.00,,,0.00,meteohub,2013-06-26 16:47:00,
2013-06-26 11:52:00,92.5,73.4,30.04,SSW,208,2.0,8.0,54,0.00,,,0.00,meteohub,2013-06-26 16:52:00,
2013-06-26 11:57:00,92.7,74.1,30.04,WSW,242,2.0,8.0,55,0.00,,,0.00,meteohub,2013-06-26 16:57:00,
2013-06-26 12:02:00,93.2,75.7,30.05,South,176,0.0,8.0,57,0.00,,,0.00,meteohub,2013-06-26 17:02:00,
2013-06-26 12:07:00,92.8,73.8,30.05,SW,217,1.0,8.0,54,0.00,,,0.00,meteohub,2013-06-26 17:07:00,
2013-06-26 12:12:00,92.7,74.7,30.04,SSE,167,1.0,8.0,56,0.00,,,0.00,meteohub,2013-06-26 17:12:00,
2013-06-26 12:17:00,93.6,76.1,30.04,WSW,237,0.0,8.0,57,0.00,,,0.00,meteohub,2013-06-26 17:17:00,
2013-06-26 12:22:00,94.6,75.4,30.04,SW,236,3.0,8.0,54,0.00,,,0.00,meteohub,2013-06-26 17:22:00,
2013-06-26 12:27:00,94.8,76.6,30.04,SSE,159,0.0,6.0,56,0.00,,,0.00,meteohub,2013-06-26 17:27:00,
2013-06-26 12:37:00,95.0,75.2,30.04,WSW,240,1.0,5.0,53,0.00,,,0.00,meteohub,2013-06-26 17:37:00,
2013-06-26 12:42:00,95.2,73.6,30.04,South,171,0.0,5.0,50,0.00,,,0.00,meteohub,2013-06-26 17:42:00,
2013-06-26 12:47:00,95.2,75.4,30.04,WSW,258,1.0,5.0,53,0.00,,,0.00,meteohub,2013-06-26 17:47:00,
2013-06-26 12:52:00,95.0,75.2,30.04,SSW,194,2.0,4.0,53,0.00,,,0.00,meteohub,2013-06-26 17:52:00,
2013-06-26 12:57:00,95.4,74.3,30.04,South,190,0.0,4.0,51,0.00,,,0.00,meteohub,2013-06-26 17:57:00,
2013-06-26 13:02:00,96.1,74.5,30.04,SW,229,0.0,4.0,50,0.00,,,0.00,meteohub,2013-06-26 18:02:00,
2013-06-26 13:07:00,95.5,74.5,30.04,South,182,3.0,5.0,51,0.00,,,0.00,meteohub,2013-06-26 18:07:00,
2013-06-26 13:12:00,94.3,74.5,30.04,WSW,241,0.0,9.0,53,0.00,,,0.00,meteohub,2013-06-26 18:12:00,
2013-06-26 13:17:00,94.3,75.0,30.03,SW,225,0.0,9.0,54,0.00,,,0.00,meteohub,2013-06-26 18:17:00,
2013-06-26 13:22:00,94.6,73.0,30.03,WSW,245,1.0,9.0,50,0.00,,,0.00,meteohub,2013-06-26 18:22:00,
2013-06-26 13:27:00,94.6,73.8,30.03,ESE,113,1.0,6.0,51,0.00,,,0.00,meteohub,2013-06-26 18:27:00,
2013-06-26 13:32:00,95.2,74.8,30.03,South,174,3.0,6.0,52,0.00,,,0.00,meteohub,2013-06-26 18:32:00,
2013-06-26 13:37:00,95.4,74.3,30.03,SSW,198,6.0,6.0,51,0.00,,,0.00,meteohub,2013-06-26 18:37:00,
2013-06-26 13:42:00,95.2,74.1,30.02,South,178,1.0,7.0,51,0.00,,,0.00,meteohub,2013-06-26 18:42:00,
2013-06-26 13:47:00,95.5,74.5,30.02,SW,215,4.0,7.0,51,0.00,,,0.00,meteohub,2013-06-26 18:47:00,
2013-06-26 13:57:00,96.6,74.8,30.02,SW,231,1.0,7.0,50,0.00,,,0.00,meteohub,2013-06-26 18:57:00,
2013-06-26 14:02:00,97.2,74.8,30.02,South,180,0.0,6.0,49,0.00,,,0.00,meteohub,2013-06-26 19:02:00,
2013-06-26 14:07:00,97.0,74.7,30.01,South,190,0.0,6.0,49,0.00,,,0.00,meteohub,2013-06-26 19:07:00,
2013-06-26 14:12:00,97.2,74.1,30.01,South,173,0.0,7.0,48,0.00,,,0.00,meteohub,2013-06-26 19:12:00,
2013-06-26 14:17:00,97.2,74.8,30.01,West,272,3.0,7.0,49,0.00,,,0.00,meteohub,2013-06-26 19:17:00,
2013-06-26 14:22:00,96.8,74.5,30.01,WSW,237,3.0,4.0,49,0.00,,,0.00,meteohub,2013-06-26 19:22:00,
2013-06-26 14:27:00,96.6,74.3,30.01,SW,223,1.0,5.0,49,0.00,,,0.00,meteohub,2013-06-26 19:27:00,
2013-06-26 14:32:00,96.3,75.2,30.00,SSW,202,0.0,5.0,51,0.00,,,0.00,meteohub,2013-06-26 19:32:00,
2013-06-26 14:37:00,96.3,75.7,30.00,WNW,284,1.0,5.0,52,0.00,,,0.00,meteohub,2013-06-26 19:37:00,
2013-06-26 14:42:00,96.3,74.7,30.00,WSW,241,3.0,5.0,50,0.00,,,0.00,meteohub,2013-06-26 19:42:00,
2013-06-26 14:47:00,96.1,73.8,29.99,NE,40,4.0,6.0,49,0.00,,,0.00,meteohub,2013-06-26 19:47:00,
2013-06-26 14:52:00,95.0,74.7,29.99,SW,217,3.0,6.0,52,0.00,,,0.00,meteohub,2013-06-26 19:52:00,
2013-06-26 15:02:00,96.3,75.2,29.99,WNW,300,1.0,5.0,51,0.00,,,0.00,meteohub,2013-06-26 20:02:00,
2013-06-26 15:07:00,96.1,74.5,29.99,NE,46,2.0,4.0,50,0.00,,,0.00,meteohub,2013-06-26 20:07:00,
2013-06-26 15:17:00,96.4,75.9,29.99,South,188,3.0,4.0,52,0.00,,,0.00,meteohub,2013-06-26 20:17:00,
2013-06-26 15:22:00,96.4,74.1,29.99,SSE,153,2.0,5.0,49,0.00,,,0.00,meteohub,2013-06-26 20:22:00,
2013-06-26 15:27:00,96.1,74.5,29.99,South,170,3.0,8.0,50,0.00,,,0.00,meteohub,2013-06-26 20:27:00,
2013-06-26 15:32:00,95.7,74.1,29.98,SW,226,2.0,8.0,50,0.00,,,0.00,meteohub,2013-06-26 20:32:00,
2013-06-26 15:37:00,95.5,74.5,29.98,WSW,246,0.0,8.0,51,0.00,,,0.00,meteohub,2013-06-26 20:37:00,
2013-06-26 15:42:00,95.7,74.1,29.98,WSW,244,0.0,6.0,50,0.00,,,0.00,meteohub,2013-06-26 20:42:00,
2013-06-26 15:47:00,95.7,73.6,29.98,WSW,244,0.0,6.0,49,0.00,,,0.00,meteohub,2013-06-26 20:47:00,
2013-06-26 15:52:00,95.7,75.2,29.97,WNW,300,0.0,6.0,52,0.00,,,0.00,meteohub,2013-06-26 20:52:00,
2013-06-26 15:57:00,95.4,73.2,29.97,WSW,247,2.0,6.0,49,0.00,,,0.00,meteohub,2013-06-26 20:57:00,
2013-06-26 16:02:00,95.4,74.3,29.97,SSW,202,2.0,5.0,51,0.00,,,0.00,meteohub,2013-06-26 21:02:00,
2013-06-26 16:07:00,95.4,75.0,29.97,SW,218,0.0,5.0,52,0.00,,,0.00,meteohub,2013-06-26 21:07:00,
2013-06-26 16:12:00,95.4,73.8,29.97,South,182,0.0,5.0,50,0.00,,,0.00,meteohub,2013-06-26 21:12:00,
2013-06-26 16:17:00,95.2,75.4,29.97,South,173,2.0,5.0,53,0.00,,,0.00,meteohub,2013-06-26 21:17:00,
2013-06-26 16:22:00,94.5,74.7,29.97,North,350,0.0,4.0,53,0.00,,,0.00,meteohub,2013-06-26 21:22:00,
2013-06-26 16:27:00,94.5,74.7,29.97,SW,221,0.0,3.0,53,0.00,,,0.00,meteohub,2013-06-26 21:27:00,
2013-06-26 16:37:00,94.1,74.3,29.97,SW,221,0.0,2.0,53,0.00,,,0.00,meteohub,2013-06-26 21:37:00,
2013-06-26 16:42:00,93.9,75.2,29.97,SW,221,0.0,2.0,55,0.00,,,0.00,meteohub,2013-06-26 21:42:00,
2013-06-26 16:47:00,93.9,75.2,29.96,SW,221,0.0,2.0,55,0.00,,,0.00,meteohub,2013-06-26 21:47:00,
2013-06-26 16:52:00,94.3,75.6,29.96,SW,221,1.0,3.0,55,0.00,,,0.00,meteohub,2013-06-26 21:52:00,
2013-06-26 16:57:00,93.9,76.3,29.96,SW,221,0.0,3.0,57,0.00,,,0.00,meteohub,2013-06-26 21:57:00,
2013-06-26 17:02:00,93.9,75.7,29.96,SW,221,0.0,2.0,56,0.00,,,0.00,meteohub,2013-06-26 22:02:00,
2013-06-26 17:07:00,93.7,73.4,29.96,WNW,290,0.0,3.0,52,0.00,,,0.00,meteohub,2013-06-26 22:07:00,
2013-06-26 17:12:00,93.7,74.7,29.96,West,279,0.0,3.0,54,0.00,,,0.00,meteohub,2013-06-26 22:12:00,
2013-06-26 17:17:00,93.7,73.9,29.95,West,279,0.0,3.0,53,0.00,,,0.00,meteohub,2013-06-26 22:17:00,
2013-06-26 17:22:00,93.6,75.0,29.95,West,279,1.0,3.0,55,0.00,,,0.00,meteohub,2013-06-26 22:22:00,
2013-06-26 17:27:00,93.6,75.6,29.95,West,279,0.0,2.0,56,0.00,,,0.00,meteohub,2013-06-26 22:27:00,
2013-06-26 17:32:00,93.7,75.7,29.95,West,279,0.0,2.0,56,0.00,,,0.00,meteohub,2013-06-26 22:32:00,
2013-06-26 17:37:00,93.7,75.2,29.95,West,279,0.0,2.0,55,0.00,,,0.00,meteohub,2013-06-26 22:37:00,
2013-06-26 17:42:00,93.7,74.7,29.95,West,279,0.0,2.0,54,0.00,,,0.00,meteohub,2013-06-26 22:42:00,
2013-06-26 17:47:00,93.7,74.7,29.95,West,279,0.0,2.0,54,0.00,,,0.00,meteohub,2013-06-26 22:47:00,
2013-06-26 17:57:00,94.3,75.0,29.94,West,279,0.0,2.0,54,0.00,,,0.00,meteohub,2013-06-26 22:57:00,
2013-06-26 18:02:00,94.5,75.7,29.94,West,279,0.0,1.0,55,0.00,,,0.00,meteohub,2013-06-26 23:02:00,
2013-06-26 18:07:00,94.3,75.0,29.94,West,279,1.0,1.0,54,0.00,,,0.00,meteohub,2013-06-26 23:07:00,
2013-06-26 18:12:00,93.9,74.7,29.94,West,279,2.0,2.0,54,0.00,,,0.00,meteohub,2013-06-26 23:12:00,
2013-06-26 18:17:00,93.6,74.5,29.94,WSW,255,0.0,4.0,54,0.00,,,0.00,meteohub,2013-06-26 23:17:00,
2013-06-26 18:22:00,93.4,74.8,29.94,WSW,255,0.0,4.0,55,0.00,,,0.00,meteohub,2013-06-26 23:22:00,
2013-06-26 18:27:00,92.7,74.1,29.94,South,182,0.0,4.0,55,0.00,,,0.00,meteohub,2013-06-26 23:27:00,
2013-06-26 18:32:00,91.9,72.9,29.94,WNW,296,2.0,3.0,54,0.00,,,0.00,meteohub,2013-06-26 23:32:00,
2013-06-26 18:37:00,91.6,74.7,29.94,SSW,206,3.0,4.0,58,0.00,,,0.00,meteohub,2013-06-26 23:37:00,
2013-06-26 18:42:00,91.0,74.1,29.94,South,185,0.0,4.0,58,0.00,,,0.00,meteohub,2013-06-26 23:42:00,
2013-06-26 18:47:00,90.5,74.1,29.94,South,185,0.0,4.0,59,0.00,,,0.00,meteohub,2013-06-26 23:47:00,
2013-06-26 18:52:00,90.1,74.8,29.94,South,185,0.0,3.0,61,0.00,,,0.00,meteohub,2013-06-26 23:52:00,
2013-06-26 18:57:00,89.8,74.5,29.94,South,185,0.0,2.0,61,0.00,,,0.00,meteohub,2013-06-26 23:57:00,
2013-06-26 19:02:00,89.4,74.1,29.94,South,185,0.0,2.0,61,0.00,,,0.00,meteohub,2013-06-27 00:02:00,
2013-06-26 19:07:00,89.1,74.3,29.94,South,185,0.0,2.0,62,0.00,,,0.00,meteohub,2013-06-27 00:07:00,
2013-06-26 19:12:00,88.9,74.1,29.94,South,185,0.0,1.0,62,0.00,,,0.00,meteohub,2013-06-27 00:12:00,
2013-06-26 19:17:00,89.1,74.3,29.94,South,185,0.0,0.0,62,0.00,,,0.00,meteohub,2013-06-27 00:17:00,
2013-06-26 19:27:00,89.1,73.9,29.94,South,185,0.0,1.0,61,0.00,,,0.00,meteohub,2013-06-27 00:27:00,
2013-06-26 19:32:00,89.1,74.8,29.94,South,185,0.0,2.0,63,0.00,,,0.00,meteohub,2013-06-27 00:32:00,
2013-06-26 19:37:00,88.9,74.7,29.94,South,185,0.0,2.0,63,0.00,,,0.00,meteohub,2013-06-27 00:37:00,
2013-06-26 19:47:00,88.3,75.0,29.94,South,185,0.0,1.0,65,0.00,,,0.00,meteohub,2013-06-27 00:47:00,
2013-06-26 19:52:00,88.2,74.8,29.94,South,185,0.0,1.0,65,0.00,,,0.00,meteohub,2013-06-27 00:52:00,
2013-06-26 19:57:00,87.8,75.0,29.94,South,185,0.0,1.0,66,0.00,,,0.00,meteohub,2013-06-27 00:57:00,
2013-06-26 20:02:00,87.4,75.2,29.94,South,185,0.0,1.0,67,0.00,,,0.00,meteohub,2013-06-27 01:02:00,
2013-06-26 20:07:00,87.1,75.2,29.94,South,185,1.0,3.0,68,0.00,,,0.00,meteohub,2013-06-27 01:07:00,
2013-06-26 20:12:00,86.7,75.4,29.94,South,185,1.0,3.0,69,0.00,,,0.00,meteohub,2013-06-27 01:12:00,
2013-06-26 20:17:00,86.4,75.4,29.94,South,185,0.0,3.0,70,0.00,,,0.00,meteohub,2013-06-27 01:17:00,
2013-06-26 20:22:00,86.0,75.0,29.94,South,185,0.0,3.0,70,0.00,,,0.00,meteohub,2013-06-27 01:22:00,
2013-06-26 20:27:00,85.8,74.8,29.94,South,185,0.0,3.0,70,0.00,,,0.00,meteohub,2013-06-27 01:27:00,
2013-06-26 20:32:00,85.6,75.2,29.94,South,185,0.0,3.0,71,0.00,,,0.00,meteohub,2013-06-27 01:32:00,
2013-06-26 20:42:00,84.9,74.8,29.94,South,185,0.0,2.0,72,0.00,,,0.00,meteohub,2013-06-27 01:42:00,
2013-06-26 20:47:00,84.6,74.5,29.94,South,185,0.0,1.0,72,0.00,,,0.00,meteohub,2013-06-27 01:47:00,
2013-06-26 20:52:00,84.4,74.8,29.94,South,185,0.0,1.0,73,0.00,,,0.00,meteohub,2013-06-27 01:52:00,
2013-06-26 20:57:00,84.0,74.8,29.94,South,185,0.0,1.0,74,0.00,,,0.00,meteohub,2013-06-27 01:57:00,
2013-06-26 21:02:00,83.8,73.8,29.94,South,185,0.0,2.0,72,0.00,,,0.00,meteohub,2013-06-27 02:02:00,
2013-06-26 21:07:00,83.8,73.8,29.95,South,185,1.0,3.0,72,0.00,,,0.00,meteohub,2013-06-27 02:07:00,
2013-06-26 21:12:00,84.0,73.9,29.95,SSW,213,4.0,9.0,72,0.00,,,0.00,meteohub,2013-06-27 02:12:00,
2013-06-26 21:17:00,84.0,74.5,29.95,SSW,192,4.0,9.0,73,0.00,,,0.00,meteohub,2013-06-27 02:17:00,
2013-06-26 21:22:00,84.0,74.8,29.95,SW,236,1.0,9.0,74,0.00,,,0.00,meteohub,2013-06-27 02:22:00,
2013-06-26 21:27:00,83.8,74.7,29.95,SW,219,4.0,6.0,74,0.00,,,0.00,meteohub,2013-06-27 02:27:00,
2013-06-26 21:32:00,83.7,74.8,29.95,SW,215,2.0,6.0,75,0.00,,,0.00,meteohub,2013-06-27 02:32:00,
2013-06-26 21:37:00,83.5,75.0,29.96,SW,215,2.0,5.0,76,0.00,,,0.00,meteohub,2013-06-27 02:37:00,
2013-06-26 21:42:00,82.9,75.0,29.96,SSW,212,5.0,7.0,77,0.00,,,0.00,meteohub,2013-06-27 02:42:00,
2013-06-26 21:47:00,82.8,74.8,29.96,SW,229,3.0,7.0,77,0.00,,,0.00,meteohub,2013-06-27 02:47:00,
2013-06-26 21:52:00,82.6,75.0,29.96,SW,229,2.0,7.0,78,0.00,,,0.00,meteohub,2013-06-27 02:52:00,
2013-06-26 21:57:00,82.0,74.8,29.96,WSW,258,0.0,6.0,79,0.00,,,0.00,meteohub,2013-06-27 02:57:00,
2013-06-26 22:02:00,81.9,75.0,29.96,WSW,258,2.0,5.0,80,0.00,,,0.00,meteohub,2013-06-27 03:02:00,
2013-06-26 22:07:00,81.7,74.8,29.96,SW,221,2.0,5.0,80,0.00,,,0.00,meteohub,2013-06-27 03:07:00,
2013-06-26 22:12:00,81.3,74.8,29.96,SW,221,1.0,5.0,81,0.00,,,0.00,meteohub,2013-06-27 03:12:00,
2013-06-26 22:17:00,81.1,74.7,29.97,South,188,2.0,5.0,81,0.00,,,0.00,meteohub,2013-06-27 03:17:00,
2013-06-26 22:22:00,81.0,75.0,29.97,SW,219,2.0,4.0,82,0.00,,,0.00,meteohub,2013-06-27 03:22:00,
2013-06-26 22:27:00,80.8,74.8,29.97,SSW,206,5.0,5.0,82,0.00,,,0.00,meteohub,2013-06-27 03:27:00,
2013-06-26 22:32:00,80.8,74.8,29.97,SW,215,2.0,7.0,82,0.00,,,0.00,meteohub,2013-06-27 03:32:00,
2013-06-26 22:37:00,80.6,75.0,29.97,SSE,166,1.0,7.0,83,0.00,,,0.00,meteohub,2013-06-27 03:37:00,
2013-06-26 22:42:00,80.4,74.8,29.98,SSW,211,1.0,7.0,83,0.00,,,0.00,meteohub,2013-06-27 03:42:00,
2013-06-26 22:47:00,80.2,74.7,29.98,WSW,248,4.0,5.0,83,0.00,,,0.00,meteohub,2013-06-27 03:47:00,
2013-06-26 22:52:00,80.2,74.7,29.99,SSW,192,3.0,6.0,83,0.00,,,0.00,meteohub,2013-06-27 03:52:00,
2013-06-26 22:57:00,80.1,74.5,29.99,SSW,202,1.0,6.0,83,0.00,,,0.00,meteohub,2013-06-27 03:57:00,
2013-06-26 23:02:00,80.1,74.8,29.99,SSW,202,1.0,6.0,84,0.00,,,0.00,meteohub,2013-06-27 04:02:00,
2013-06-26 23:07:00,79.9,74.7,29.99,SSW,202,2.0,6.0,84,0.00,,,0.00,meteohub,2013-06-27 04:07:00,
2013-06-26 23:12:00,79.9,74.7,29.99,SSW,202,1.0,3.0,84,0.00,,,0.00,meteohub,2013-06-27 04:12:00,
2013-06-26 23:17:00,79.7,74.5,29.99,SSW,202,3.0,4.0,84,0.00,,,0.00,meteohub,2013-06-27 04:17:00,
2013-06-26 23:22:00,79.7,74.5,30.00,SSW,211,1.0,4.0,84,0.00,,,0.00,meteohub,2013-06-27 04:22:00,
2013-06-26 23:27:00,79.9,74.7,29.99,SSW,211,4.0,4.0,84,0.00,,,0.00,meteohub,2013-06-27 04:27:00,
2013-06-26 23:32:00,79.7,74.5,30.00,SSW,207,3.0,5.0,84,0.00,,,0.00,meteohub,2013-06-27 04:32:00,
2013-06-26 23:37:00,79.5,74.7,29.99,SSW,202,1.0,5.0,85,0.00,,,0.00,meteohub,2013-06-27 04:37:00,
2013-06-26 23:42:00,79.5,74.7,29.99,SSW,202,0.0,6.0,85,0.00,,,0.00,meteohub,2013-06-27 04:42:00,
2013-06-26 23:47:00,79.3,74.8,29.99,SSW,207,4.0,6.0,86,0.00,,,0.00,meteohub,2013-06-27 04:47:00,
2013-06-26 23:52:00,79.3,74.8,30.00,SSW,207,1.0,6.0,86,0.00,,,0.00,meteohub,2013-06-27 04:52:00,
2013-06-26 23:57:00,79.3,74.8,30.00,SSW,207,1.0,4.0,86,0.00,,,0.00,meteohub,2013-06-27 04:57:00,